Time;durP1;ratioP1;P1;durP2;ratioP2;P2;SDS_P1;SDS_P2;PMS_P1;PMS_P2;Temp;Humidity;BMP_temperature;BMP_pressure;BME280_temperature;BME280_humidity;BME280_pressure;Samples;Min_cycle;Max_cycle;Signal;HPM_P1;HPM_P2
2023/07/09 00:05:38;;;;;;;7.80;7.10;;;18.70;84.70;;;;;;5680319;24;20193;-83
2023/07/09 00:31:17;;;;;;;7.43;6.73;;;18.30;86.40;;;;;;5687414;24;20264;-84
2023/07/09 02:17:40;;;;;;;7.33;6.63;;;17.30;90.10;;;;;;5697581;24;20708;-82
2023/07/09 02:57:37;;;;;;;7.20;6.50;;;17.00;91.00;;;;;;5896072;23;20190;-83
2023/07/09 03:18:20;;;;;;;7.70;6.90;;;17.10;91.00;;;;;;5670908;24;20206;-83
2023/07/09 03:54:07;;;;;;;7.07;6.40;;;17.40;90.30;;;;;;5869501;23;20260;-86
2023/07/09 04:23:51;;;;;;;8.03;5.33;;;17.80;88.40;;;;;;5880422;23;20494;-82
2023/07/09 04:59:59;;;;;;;4.67;4.10;;;19.20;83.20;;;;;;6031571;23;20897;-83
2023/07/09 05:25:17;;;;;;;4.43;3.57;;;20.00;81.60;;;;;;5862826;23;20443;-86
2023/07/09 05:55:33;;;;;;;4.00;3.70;;;20.70;80.40;;;;;;6042391;23;20157;-85
2023/07/09 06:20:31;;;;;;;3.60;3.13;;;20.60;79.10;;;;;;5854036;23;20390;-83
2023/07/09 06:50:59;;;;;;;3.65;2.92;;;21.90;73.90;;;;;;5841196;23;20998;-86
2023/07/09 07:11:56;;;;;;;4.38;3.00;;;22.30;67.60;;;;;;5717176;24;20186;-85
2023/07/09 08:02:21;;;;;;;2.67;2.47;;;23.50;60.60;;;;;;5563931;25;20181;-85
2023/07/09 08:27:44;;;;;;;6.07;2.25;;;24.50;56.10;;;;;;5753288;24;20245;-84
2023/07/09 09:08:13;;;;;;;1.90;1.80;;;24.80;49.10;;;;;;5874903;23;20756;-85
2023/07/09 09:33:51;;;;;;;2.28;1.80;;;25.10;48.10;;;;;;5723962;24;20190;-85
2023/07/09 09:58:40;;;;;;;2.13;1.30;;;25.30;44.80;;;;;;5797922;23;20209;-85
2023/07/09 10:19:36;;;;;;;2.10;1.40;;;24.60;46.80;;;;;;5805001;24;20194;-83
2023/07/09 11:20:24;;;;;;;2.35;1.27;;;24.90;46.20;;;;;;4967361;28;20634;-84
2023/07/09 11:50:23;;;;;;;2.55;1.35;;;25.60;44.80;;;;;;4798487;28;20515;-83
2023/07/09 12:11:09;;;;;;;1.30;1.20;;;26.10;43.60;;;;;;4885622;28;20207;-86
2023/07/09 12:36:15;;;;;;;1.63;1.50;;;26.60;44.20;;;;;;4869583;28;20371;-84
2023/07/09 13:06:49;;;;;;;1.85;1.40;;;27.60;44.50;;;;;;4802656;28;20189;-86
2023/07/09 13:27:13;;;;;;;1.60;1.50;;;28.20;43.70;;;;;;4677668;29;20948;-84
2023/07/09 13:57:27;;;;;;;1.77;1.67;;;29.60;43.30;;;;;;4775805;29;20256;-82
2023/07/09 14:17:35;;;;;;;3.17;1.63;;;30.90;40.40;;;;;;4709884;29;20767;-85
2023/07/09 14:43:11;;;;;;;1.98;1.75;;;33.20;40.70;;;;;;4588643;30;20320;-84
2023/07/09 14:53:17;;;;;;;1.50;1.40;;;33.20;40.40;;;;;;5869397;23;20662;-82
2023/07/09 15:28:46;;;;;;;1.70;1.60;;;33.80;40.50;;;;;;4708727;29;20520;-85
2023/07/09 16:09:20;;;;;;;2.78;2.00;;;28.20;40.80;;;;;;4793767;29;20200;-84
2023/07/09 16:34:29;;;;;;;2.58;2.17;;;27.20;42.10;;;;;;4693527;29;20557;-83
2023/07/09 16:59:44;;;;;;;2.15;2.05;;;26.20;42.10;;;;;;4516503;30;20571;-86
2023/07/09 17:20:29;;;;;;;2.45;2.25;;;26.00;42.00;;;;;;4545425;30;20575;-83
2023/07/09 17:40:27;;;;;;;2.17;1.90;;;25.60;41.40;;;;;;4550302;30;20693;-85
2023/07/09 18:01:03;;;;;;;2.20;1.80;;;25.20;41.90;;;;;;4578692;30;20579;-84
2023/07/09 18:36:32;;;;;;;2.33;2.05;;;24.20;42.70;;;;;;4729040;29;20195;-84
2023/07/09 19:06:56;;;;;;;2.53;2.10;;;23.00;44.10;;;;;;4777106;29;20336;-86
2023/07/09 19:32:18;;;;;;;2.95;2.17;;;22.10;45.80;;;;;;4751199;29;20206;-82
2023/07/09 19:57:27;;;;;;;3.63;2.40;;;21.20;49.20;;;;;;4689085;29;20316;-82
2023/07/09 20:17:23;;;;;;;2.73;2.53;;;20.40;60.60;;;;;;4630285;29;21534;-86
2023/07/09 20:42:48;;;;;;;3.20;2.90;;;19.60;78.50;;;;;;4745149;29;20291;-86
2023/07/09 21:08:32;;;;;;;4.70;3.10;;;19.40;81.40;;;;;;4652086;29;20321;-82
2023/07/09 21:48:32;;;;;;;4.20;3.70;;;19.10;83.80;;;;;;4648864;29;20578;-87
2023/07/09 22:09:18;;;;;;;4.73;4.27;;;18.50;85.00;;;;;;4749743;29;20742;-82
2023/07/09 22:34:50;;;;;;;5.90;4.67;;;18.80;86.70;;;;;;4730617;29;20825;-84
2023/07/09 23:00:13;;;;;;;6.33;4.47;;;17.70;90.00;;;;;;4759946;29;20407;-83
2023/07/09 23:35:40;;;;;;;5.87;4.87;;;16.90;92.30;;;;;;4841288;28;21629;-86
